map of HND home
Great Circle Mapper logo
HND - Airport
Location
City:  Tokyo, Honshu, Japan
Name:Haneda
ICAO / IATA:RJTT / HND

Details
Type:Airport (Aerodrome, Airfield)
Use:Public/Civil, International (customs port of entry)
Latitude:3533'12"N (35.553333)
Longitude:13946'52"E (139.781111)
Elevation:21 ft (6 m)
Runways:4
Longest:9843 × 197 ft (3000 × 60 m), paved

Time
Time Zone:UTC+9
Local Time:

Weather
METAR:RJTT 171500Z 04003KT 7000 NSC 17/15 Q1012 NOSIG RMK A2990
TAF:RJTT 171105Z 1712/1818 15006KT 8000 FEW030 SCT060
BECMG 1714/1716 34006KT
BECMG 1719/1721 04012KT
TEMPO 1800/1806 4000 -RA BR FEW005 BKN008
BECMG 1812/1815 34012KT

Related Locations
Nearby:
Farthest:SSMT: 11752 mi / 18912 km
Mostardas, RS, BR

Find:

   beyond  
but within

Other Information
Maps:
NOTAMs:
Links:
Sources:

  
flag of Japan
flag of Tokyo
  

Airport Diagram

Airport diagram for HND

Airport diagram (OBSOLETE) from NGA

Sectional Chart

Flight Planning
at skyvector.com

Satellite Image

Google Maps Satellite View

 

Copyright © 2004-2014 Karl L. Swartz. All rights reserved.
The Great Circle Mapper name and logo are trademarks of the Great Circle Mapper.
All other trademarks mentioned herein belong to their respective owners.
Please see credits for attibutions and further copyright information.

  Follow gcmap on Facebook Follow gcmap on Twitter

hCard Microformat

Geo Microformat